sensor_id;sensor_type;location;lat;lon;timestamp;P1;durP1;ratioP1;P2;durP2;ratioP2
56517;SDS011;42419;48.760;2.322;2023-05-10T00:01:19;2.27;;;1.77;;
56517;SDS011;42419;48.760;2.322;2023-05-10T00:03:45;2.70;;;1.83;;
56517;SDS011;42419;48.760;2.322;2023-05-10T00:06:10;3.47;;;1.90;;
56517;SDS011;42419;48.760;2.322;2023-05-10T00:08:35;3.13;;;1.63;;
56517;SDS011;42419;48.760;2.322;2023-05-10T00:11:01;3.80;;;1.80;;
56517;SDS011;42419;48.760;2.322;2023-05-10T00:13:26;1.80;;;1.60;;
56517;SDS011;42419;48.760;2.322;2023-05-10T00:15:52;2.00;;;1.83;;
56517;SDS011;42419;48.760;2.322;2023-05-10T00:18:17;3.00;;;1.60;;
56517;SDS011;42419;48.760;2.322;2023-05-10T00:20:42;2.10;;;1.90;;
56517;SDS011;42419;48.760;2.322;2023-05-10T00:23:07;2.30;;;1.83;;
56517;SDS011;42419;48.760;2.322;2023-05-10T00:25:33;1.67;;;1.57;;
56517;SDS011;42419;48.760;2.322;2023-05-10T00:27:58;5.70;;;1.83;;
56517;SDS011;42419;48.760;2.322;2023-05-10T00:30:26;9.73;;;1.93;;
56517;SDS011;42419;48.760;2.322;2023-05-10T00:32:51;2.10;;;1.90;;
56517;SDS011;42419;48.760;2.322;2023-05-10T00:35:16;2.30;;;1.90;;
56517;SDS011;42419;48.760;2.322;2023-05-10T00:37:42;2.20;;;1.63;;
56517;SDS011;42419;48.760;2.322;2023-05-10T00:40:07;2.43;;;1.90;;
56517;SDS011;42419;48.760;2.322;2023-05-10T00:42:33;2.63;;;1.70;;
56517;SDS011;42419;48.760;2.322;2023-05-10T00:44:58;2.90;;;2.10;;
56517;SDS011;42419;48.760;2.322;2023-05-10T00:47:23;1.70;;;1.60;;
56517;SDS011;42419;48.760;2.322;2023-05-10T00:49:49;2.20;;;1.23;;
56517;SDS011;42419;48.760;2.322;2023-05-10T00:52:15;1.70;;;1.60;;
56517;SDS011;42419;48.760;2.322;2023-05-10T00:54:40;2.70;;;1.30;;
56517;SDS011;42419;48.760;2.322;2023-05-10T00:57:06;2.10;;;1.70;;
56517;SDS011;42419;48.760;2.322;2023-05-10T00:59:32;2.00;;;1.80;;
56517;SDS011;42419;48.760;2.322;2023-05-10T01:01:57;2.83;;;1.63;;
56517;SDS011;42419;48.760;2.322;2023-05-10T01:04:23;2.20;;;2.00;;
56517;SDS011;42419;48.760;2.322;2023-05-10T01:06:50;2.17;;;1.97;;
56517;SDS011;42419;48.760;2.322;2023-05-10T01:09:17;1.90;;;1.60;;
56517;SDS011;42419;48.760;2.322;2023-05-10T01:11:43;1.57;;;1.47;;
56517;SDS011;42419;48.760;2.322;2023-05-10T01:14:09;1.67;;;1.53;;
56517;SDS011;42419;48.760;2.322;2023-05-10T01:16:38;2.07;;;1.40;;
56517;SDS011;42419;48.760;2.322;2023-05-10T01:19:10;2.43;;;1.60;;
56517;SDS011;42419;48.760;2.322;2023-05-10T01:24:38;2.00;;;1.37;;
56517;SDS011;42419;48.760;2.322;2023-05-10T01:33:27;2.80;;;2.00;;
56517;SDS011;42419;48.760;2.322;2023-05-10T01:38:47;2.10;;;1.60;;
56517;SDS011;42419;48.760;2.322;2023-05-10T01:44:29;2.83;;;1.73;;
56517;SDS011;42419;48.760;2.322;2023-05-10T01:47:46;2.00;;;1.80;;
56517;SDS011;42419;48.760;2.322;2023-05-10T01:49:53;1.90;;;1.70;;
56517;SDS011;42419;48.760;2.322;2023-05-10T01:52:22;2.90;;;1.50;;
56517;SDS011;42419;48.760;2.322;2023-05-10T01:54:55;2.20;;;1.60;;
56517;SDS011;42419;48.760;2.322;2023-05-10T01:57:27;1.90;;;1.70;;
56517;SDS011;42419;48.760;2.322;2023-05-10T02:00:02;2.40;;;1.73;;
56517;SDS011;42419;48.760;2.322;2023-05-10T02:02:29;1.47;;;1.37;;
56517;SDS011;42419;48.760;2.322;2023-05-10T02:04:58;2.63;;;1.83;;
56517;SDS011;42419;48.760;2.322;2023-05-10T02:07:24;2.03;;;1.43;;
56517;SDS011;42419;48.760;2.322;2023-05-10T02:09:53;1.53;;;1.30;;
56517;SDS011;42419;48.760;2.322;2023-05-10T02:12:20;1.50;;;1.40;;
56517;SDS011;42419;48.760;2.322;2023-05-10T02:14:48;3.17;;;1.70;;
56517;SDS011;42419;48.760;2.322;2023-05-10T02:17:15;1.67;;;1.30;;
56517;SDS011;42419;48.760;2.322;2023-05-10T02:19:41;3.10;;;2.00;;
56517;SDS011;42419;48.760;2.322;2023-05-10T02:22:09;1.73;;;1.37;;
56517;SDS011;42419;48.760;2.322;2023-05-10T02:24:35;2.20;;;1.43;;
56517;SDS011;42419;48.760;2.322;2023-05-10T02:27:02;1.30;;;1.20;;
56517;SDS011;42419;48.760;2.322;2023-05-10T02:29:29;1.97;;;1.60;;
56517;SDS011;42419;48.760;2.322;2023-05-10T02:31:56;2.83;;;1.70;;
56517;SDS011;42419;48.760;2.322;2023-05-10T02:34:22;1.80;;;1.30;;
56517;SDS011;42419;48.760;2.322;2023-05-10T02:36:50;1.70;;;1.40;;
56517;SDS011;42419;48.760;2.322;2023-05-10T02:39:17;1.40;;;1.20;;
56517;SDS011;42419;48.760;2.322;2023-05-10T02:41:44;1.70;;;1.50;;
56517;SDS011;42419;48.760;2.322;2023-05-10T02:44:11;1.80;;;1.50;;
56517;SDS011;42419;48.760;2.322;2023-05-10T02:46:40;1.30;;;1.20;;
56517;SDS011;42419;48.760;2.322;2023-05-10T02:49:05;1.80;;;1.43;;
56517;SDS011;42419;48.760;2.322;2023-05-10T02:51:32;2.00;;;1.50;;
56517;SDS011;42419;48.760;2.322;2023-05-10T02:54:02;1.30;;;1.10;;
56517;SDS011;42419;48.760;2.322;2023-05-10T02:56:38;1.93;;;1.60;;
56517;SDS011;42419;48.760;2.322;2023-05-10T02:59:11;5.40;;;1.40;;
56517;SDS011;42419;48.760;2.322;2023-05-10T03:01:37;1.50;;;1.37;;
56517;SDS011;42419;48.760;2.322;2023-05-10T03:04:02;1.50;;;1.30;;
56517;SDS011;42419;48.760;2.322;2023-05-10T03:06:28;1.33;;;1.20;;
56517;SDS011;42419;48.760;2.322;2023-05-10T03:08:53;3.00;;;1.67;;
56517;SDS011;42419;48.760;2.322;2023-05-10T03:11:28;1.30;;;1.20;;
56517;SDS011;42419;48.760;2.322;2023-05-10T03:14:16;2.20;;;1.30;;
56517;SDS011;42419;48.760;2.322;2023-05-10T03:16:57;2.20;;;1.40;;
56517;SDS011;42419;48.760;2.322;2023-05-10T03:19:47;2.20;;;1.30;;
56517;SDS011;42419;48.760;2.322;2023-05-10T03:22:16;1.50;;;1.20;;
56517;SDS011;42419;48.760;2.322;2023-05-10T03:24:49;1.80;;;1.47;;
56517;SDS011;42419;48.760;2.322;2023-05-10T03:27:16;2.10;;;1.10;;
56517;SDS011;42419;48.760;2.322;2023-05-10T03:29:43;1.40;;;1.20;;
56517;SDS011;42419;48.760;2.322;2023-05-10T03:32:11;1.93;;;1.40;;
56517;SDS011;42419;48.760;2.322;2023-05-10T03:34:41;1.90;;;1.37;;
56517;SDS011;42419;48.760;2.322;2023-05-10T03:37:08;2.90;;;1.50;;
56517;SDS011;42419;48.760;2.322;2023-05-10T03:39:33;2.40;;;1.43;;
56517;SDS011;42419;48.760;2.322;2023-05-10T03:41:58;2.53;;;1.30;;
56517;SDS011;42419;48.760;2.322;2023-05-10T03:44:24;1.70;;;1.30;;
56517;SDS011;42419;48.760;2.322;2023-05-10T03:46:49;1.97;;;1.50;;
56517;SDS011;42419;48.760;2.322;2023-05-10T03:49:14;2.37;;;1.40;;
56517;SDS011;42419;48.760;2.322;2023-05-10T03:51:40;1.37;;;1.00;;
56517;SDS011;42419;48.760;2.322;2023-05-10T03:54:05;1.47;;;1.00;;
56517;SDS011;42419;48.760;2.322;2023-05-10T03:56:30;2.07;;;1.20;;
56517;SDS011;42419;48.760;2.322;2023-05-10T03:58:55;1.30;;;1.20;;
56517;SDS011;42419;48.760;2.322;2023-05-10T04:01:21;1.50;;;1.30;;
56517;SDS011;42419;48.760;2.322;2023-05-10T04:03:46;1.43;;;1.10;;
56517;SDS011;42419;48.760;2.322;2023-05-10T04:06:11;2.03;;;1.33;;
56517;SDS011;42419;48.760;2.322;2023-05-10T04:08:37;2.47;;;1.37;;
56517;SDS011;42419;48.760;2.322;2023-05-10T04:11:06;1.53;;;1.10;;
56517;SDS011;42419;48.760;2.322;2023-05-10T04:13:32;1.60;;;1.30;;
56517;SDS011;42419;48.760;2.322;2023-05-10T04:15:58;1.97;;;1.43;;
56517;SDS011;42419;48.760;2.322;2023-05-10T04:18:23;1.57;;;1.23;;
56517;SDS011;42419;48.760;2.322;2023-05-10T04:20:49;1.47;;;1.07;;
56517;SDS011;42419;48.760;2.322;2023-05-10T04:23:14;1.43;;;1.30;;
56517;SDS011;42419;48.760;2.322;2023-05-10T04:25:41;1.50;;;1.20;;
56517;SDS011;42419;48.760;2.322;2023-05-10T04:28:06;1.30;;;1.17;;
56517;SDS011;42419;48.760;2.322;2023-05-10T04:30:32;2.00;;;1.20;;
56517;SDS011;42419;48.760;2.322;2023-05-10T04:32:57;1.80;;;1.30;;
56517;SDS011;42419;48.760;2.322;2023-05-10T04:35:23;1.27;;;1.00;;
56517;SDS011;42419;48.760;2.322;2023-05-10T04:37:48;1.63;;;1.20;;
56517;SDS011;42419;48.760;2.322;2023-05-10T04:40:13;2.60;;;1.50;;
56517;SDS011;42419;48.760;2.322;2023-05-10T04:42:42;1.77;;;1.23;;
56517;SDS011;42419;48.760;2.322;2023-05-10T04:45:08;1.20;;;1.10;;
56517;SDS011;42419;48.760;2.322;2023-05-10T04:47:35;1.10;;;0.90;;
56517;SDS011;42419;48.760;2.322;2023-05-10T04:50:01;1.50;;;1.20;;
56517;SDS011;42419;48.760;2.322;2023-05-10T04:52:27;1.50;;;1.40;;
56517;SDS011;42419;48.760;2.322;2023-05-10T04:54:52;2.50;;;1.40;;
56517;SDS011;42419;48.760;2.322;2023-05-10T04:57:18;1.77;;;1.20;;
56517;SDS011;42419;48.760;2.322;2023-05-10T04:59:43;1.50;;;1.20;;
56517;SDS011;42419;48.760;2.322;2023-05-10T05:02:08;2.30;;;1.27;;
56517;SDS011;42419;48.760;2.322;2023-05-10T05:04:34;1.80;;;1.23;;
56517;SDS011;42419;48.760;2.322;2023-05-10T05:06:59;1.63;;;1.10;;
56517;SDS011;42419;48.760;2.322;2023-05-10T05:09:24;1.20;;;1.10;;
56517;SDS011;42419;48.760;2.322;2023-05-10T05:11:50;1.83;;;1.50;;
56517;SDS011;42419;48.760;2.322;2023-05-10T05:14:15;2.80;;;1.50;;
56517;SDS011;42419;48.760;2.322;2023-05-10T05:16:40;1.40;;;1.07;;
56517;SDS011;42419;48.760;2.322;2023-05-10T05:19:06;1.80;;;1.20;;
56517;SDS011;42419;48.760;2.322;2023-05-10T05:21:31;2.40;;;1.20;;
56517;SDS011;42419;48.760;2.322;2023-05-10T05:23:57;1.80;;;1.40;;
56517;SDS011;42419;48.760;2.322;2023-05-10T05:26:23;1.50;;;1.23;;
56517;SDS011;42419;48.760;2.322;2023-05-10T05:28:48;4.03;;;1.50;;
56517;SDS011;42419;48.760;2.322;2023-05-10T05:31:16;1.63;;;1.33;;
56517;SDS011;42419;48.760;2.322;2023-05-10T05:33:42;2.97;;;1.50;;
56517;SDS011;42419;48.760;2.322;2023-05-10T05:36:08;1.40;;;1.23;;
56517;SDS011;42419;48.760;2.322;2023-05-10T05:38:34;1.77;;;1.20;;
56517;SDS011;42419;48.760;2.322;2023-05-10T05:40:59;3.00;;;1.50;;
56517;SDS011;42419;48.760;2.322;2023-05-10T05:43:25;2.47;;;1.40;;
56517;SDS011;42419;48.760;2.322;2023-05-10T05:45:51;3.97;;;1.20;;
56517;SDS011;42419;48.760;2.322;2023-05-10T05:48:18;2.37;;;1.07;;
56517;SDS011;42419;48.760;2.322;2023-05-10T05:50:43;2.00;;;1.20;;
56517;SDS011;42419;48.760;2.322;2023-05-10T05:53:08;2.30;;;1.30;;
56517;SDS011;42419;48.760;2.322;2023-05-10T05:55:34;2.60;;;1.43;;
56517;SDS011;42419;48.760;2.322;2023-05-10T05:57:59;2.43;;;1.30;;
56517;SDS011;42419;48.760;2.322;2023-05-10T06:00:24;4.40;;;1.67;;
56517;SDS011;42419;48.760;2.322;2023-05-10T06:02:50;1.87;;;1.00;;
56517;SDS011;42419;48.760;2.322;2023-05-10T06:05:16;1.40;;;1.30;;
56517;SDS011;42419;48.760;2.322;2023-05-10T06:07:41;2.20;;;1.20;;
56517;SDS011;42419;48.760;2.322;2023-05-10T06:10:07;1.67;;;1.40;;
56517;SDS011;42419;48.760;2.322;2023-05-10T06:12:33;1.93;;;1.23;;
56517;SDS011;42419;48.760;2.322;2023-05-10T06:14:58;2.43;;;1.10;;
56517;SDS011;42419;48.760;2.322;2023-05-10T06:17:23;2.10;;;1.27;;
56517;SDS011;42419;48.760;2.322;2023-05-10T06:19:50;5.33;;;1.50;;
56517;SDS011;42419;48.760;2.322;2023-05-10T06:22:15;2.90;;;1.57;;
56517;SDS011;42419;48.760;2.322;2023-05-10T06:24:40;6.50;;;1.63;;
56517;SDS011;42419;48.760;2.322;2023-05-10T06:27:06;2.57;;;1.57;;
56517;SDS011;42419;48.760;2.322;2023-05-10T06:29:31;1.63;;;1.40;;
56517;SDS011;42419;48.760;2.322;2023-05-10T06:31:57;1.67;;;1.10;;
56517;SDS011;42419;48.760;2.322;2023-05-10T06:34:22;4.70;;;1.97;;
56517;SDS011;42419;48.760;2.322;2023-05-10T06:36:50;1.70;;;1.30;;
56517;SDS011;42419;48.760;2.322;2023-05-10T06:39:16;2.00;;;1.50;;
56517;SDS011;42419;48.760;2.322;2023-05-10T06:41:42;2.77;;;1.67;;
56517;SDS011;42419;48.760;2.322;2023-05-10T06:44:07;2.00;;;1.50;;
56517;SDS011;42419;48.760;2.322;2023-05-10T06:46:33;3.27;;;1.50;;
56517;SDS011;42419;48.760;2.322;2023-05-10T06:48:58;2.70;;;1.77;;
56517;SDS011;42419;48.760;2.322;2023-05-10T06:51:24;2.83;;;1.90;;
56517;SDS011;42419;48.760;2.322;2023-05-10T06:53:49;2.77;;;2.07;;
56517;SDS011;42419;48.760;2.322;2023-05-10T06:56:14;1.90;;;1.50;;
56517;SDS011;42419;48.760;2.322;2023-05-10T06:58:40;2.50;;;1.50;;
56517;SDS011;42419;48.760;2.322;2023-05-10T07:01:05;2.17;;;1.40;;
56517;SDS011;42419;48.760;2.322;2023-05-10T07:03:31;2.80;;;1.47;;
56517;SDS011;42419;48.760;2.322;2023-05-10T07:06:00;2.00;;;1.50;;
56517;SDS011;42419;48.760;2.322;2023-05-10T07:08:28;1.60;;;1.30;;
56517;SDS011;42419;48.760;2.322;2023-05-10T07:10:53;2.20;;;1.73;;
56517;SDS011;42419;48.760;2.322;2023-05-10T07:13:33;2.60;;;1.40;;
56517;SDS011;42419;48.760;2.322;2023-05-10T07:15:59;2.10;;;1.40;;
56517;SDS011;42419;48.760;2.322;2023-05-10T07:18:25;2.00;;;1.43;;
56517;SDS011;42419;48.760;2.322;2023-05-10T07:20:51;1.47;;;1.23;;
56517;SDS011;42419;48.760;2.322;2023-05-10T07:23:17;3.13;;;1.60;;
56517;SDS011;42419;48.760;2.322;2023-05-10T07:25:44;2.80;;;1.70;;
56517;SDS011;42419;48.760;2.322;2023-05-10T07:28:10;4.27;;;1.57;;
56517;SDS011;42419;48.760;2.322;2023-05-10T07:30:36;2.40;;;1.57;;
56517;SDS011;42419;48.760;2.322;2023-05-10T07:33:01;3.20;;;1.40;;
56517;SDS011;42419;48.760;2.322;2023-05-10T07:35:26;1.53;;;1.37;;
56517;SDS011;42419;48.760;2.322;2023-05-10T07:37:52;2.67;;;1.60;;
56517;SDS011;42419;48.760;2.322;2023-05-10T07:40:17;3.93;;;1.50;;
56517;SDS011;42419;48.760;2.322;2023-05-10T07:42:42;2.67;;;1.70;;
56517;SDS011;42419;48.760;2.322;2023-05-10T07:45:08;2.73;;;1.67;;
56517;SDS011;42419;48.760;2.322;2023-05-10T07:47:33;2.03;;;1.57;;
56517;SDS011;42419;48.760;2.322;2023-05-10T07:49:59;2.23;;;1.40;;
56517;SDS011;42419;48.760;2.322;2023-05-10T07:52:24;2.50;;;1.50;;
56517;SDS011;42419;48.760;2.322;2023-05-10T07:54:49;2.10;;;1.50;;
56517;SDS011;42419;48.760;2.322;2023-05-10T07:57:15;3.77;;;1.70;;
56517;SDS011;42419;48.760;2.322;2023-05-10T07:59:42;1.63;;;1.40;;
56517;SDS011;42419;48.760;2.322;2023-05-10T08:02:08;1.70;;;1.30;;
56517;SDS011;42419;48.760;2.322;2023-05-10T08:04:33;1.40;;;1.30;;
56517;SDS011;42419;48.760;2.322;2023-05-10T08:06:58;2.33;;;1.60;;
56517;SDS011;42419;48.760;2.322;2023-05-10T08:09:23;1.70;;;1.40;;
56517;SDS011;42419;48.760;2.322;2023-05-10T08:11:49;1.97;;;1.43;;
56517;SDS011;42419;48.760;2.322;2023-05-10T08:14:15;2.30;;;1.73;;
56517;SDS011;42419;48.760;2.322;2023-05-10T08:16:41;1.43;;;1.33;;
56517;SDS011;42419;48.760;2.322;2023-05-10T08:19:06;1.60;;;1.50;;
56517;SDS011;42419;48.760;2.322;2023-05-10T08:21:32;2.53;;;1.93;;
56517;SDS011;42419;48.760;2.322;2023-05-10T08:23:57;2.53;;;1.63;;
56517;SDS011;42419;48.760;2.322;2023-05-10T08:26:22;3.57;;;1.87;;
56517;SDS011;42419;48.760;2.322;2023-05-10T08:28:48;2.83;;;1.30;;
56517;SDS011;42419;48.760;2.322;2023-05-10T08:31:13;2.70;;;1.40;;
56517;SDS011;42419;48.760;2.322;2023-05-10T08:33:40;2.77;;;1.50;;
56517;SDS011;42419;48.760;2.322;2023-05-10T08:36:06;2.10;;;1.53;;
56517;SDS011;42419;48.760;2.322;2023-05-10T08:38:31;1.80;;;1.33;;
56517;SDS011;42419;48.760;2.322;2023-05-10T08:40:57;1.60;;;1.50;;
56517;SDS011;42419;48.760;2.322;2023-05-10T08:43:25;1.93;;;1.70;;
56517;SDS011;42419;48.760;2.322;2023-05-10T08:45:56;2.00;;;1.40;;
56517;SDS011;42419;48.760;2.322;2023-05-10T08:48:24;1.70;;;1.50;;
56517;SDS011;42419;48.760;2.322;2023-05-10T08:50:52;1.97;;;1.40;;
56517;SDS011;42419;48.760;2.322;2023-05-10T08:53:21;2.60;;;1.60;;
56517;SDS011;42419;48.760;2.322;2023-05-10T08:55:49;1.63;;;1.53;;
56517;SDS011;42419;48.760;2.322;2023-05-10T08:58:15;2.47;;;1.60;;
56517;SDS011;42419;48.760;2.322;2023-05-10T09:00:40;2.70;;;1.50;;
56517;SDS011;42419;48.760;2.322;2023-05-10T09:03:06;2.10;;;1.53;;
56517;SDS011;42419;48.760;2.322;2023-05-10T09:05:32;1.43;;;1.30;;
56517;SDS011;42419;48.760;2.322;2023-05-10T09:07:57;1.57;;;1.43;;
56517;SDS011;42419;48.760;2.322;2023-05-10T09:10:25;2.20;;;1.90;;
56517;SDS011;42419;48.760;2.322;2023-05-10T09:12:52;2.73;;;1.70;;
56517;SDS011;42419;48.760;2.322;2023-05-10T09:15:18;1.83;;;1.47;;
56517;SDS011;42419;48.760;2.322;2023-05-10T09:17:44;2.10;;;1.80;;
56517;SDS011;42419;48.760;2.322;2023-05-10T09:20:10;1.67;;;1.57;;
56517;SDS011;42419;48.760;2.322;2023-05-10T09:22:36;1.97;;;1.60;;
56517;SDS011;42419;48.760;2.322;2023-05-10T09:27:38;1.63;;;1.37;;
56517;SDS011;42419;48.760;2.322;2023-05-10T09:30:05;1.60;;;1.50;;
56517;SDS011;42419;48.760;2.322;2023-05-10T09:32:38;1.87;;;1.40;;
56517;SDS011;42419;48.760;2.322;2023-05-10T09:35:11;2.53;;;1.60;;
56517;SDS011;42419;48.760;2.322;2023-05-10T09:37:38;2.23;;;1.80;;
56517;SDS011;42419;48.760;2.322;2023-05-10T09:40:06;1.70;;;1.60;;
56517;SDS011;42419;48.760;2.322;2023-05-10T09:42:33;2.80;;;2.00;;
56517;SDS011;42419;48.760;2.322;2023-05-10T09:45:01;1.43;;;1.20;;
56517;SDS011;42419;48.760;2.322;2023-05-10T09:47:27;2.57;;;1.70;;
56517;SDS011;42419;48.760;2.322;2023-05-10T09:49:52;3.43;;;1.87;;
56517;SDS011;42419;48.760;2.322;2023-05-10T09:52:20;4.27;;;2.57;;
56517;SDS011;42419;48.760;2.322;2023-05-10T09:54:47;2.30;;;1.80;;
56517;SDS011;42419;48.760;2.322;2023-05-10T09:57:19;2.70;;;1.70;;
56517;SDS011;42419;48.760;2.322;2023-05-10T09:59:46;2.83;;;1.90;;
56517;SDS011;42419;48.760;2.322;2023-05-10T10:02:12;2.70;;;1.80;;
56517;SDS011;42419;48.760;2.322;2023-05-10T10:04:41;3.00;;;2.10;;
56517;SDS011;42419;48.760;2.322;2023-05-10T10:07:06;1.90;;;1.67;;
56517;SDS011;42419;48.760;2.322;2023-05-10T10:09:32;2.80;;;1.77;;
56517;SDS011;42419;48.760;2.322;2023-05-10T10:12:00;2.93;;;1.80;;
56517;SDS011;42419;48.760;2.322;2023-05-10T10:14:26;1.80;;;1.60;;
56517;SDS011;42419;48.760;2.322;2023-05-10T10:16:51;2.17;;;1.97;;
56517;SDS011;42419;48.760;2.322;2023-05-10T10:19:20;5.93;;;2.37;;
56517;SDS011;42419;48.760;2.322;2023-05-10T10:21:47;2.67;;;2.10;;
56517;SDS011;42419;48.760;2.322;2023-05-10T10:24:13;2.17;;;1.97;;
56517;SDS011;42419;48.760;2.322;2023-05-10T10:26:38;3.90;;;2.40;;
56517;SDS011;42419;48.760;2.322;2023-05-10T10:29:24;3.03;;;1.90;;
56517;SDS011;42419;48.760;2.322;2023-05-10T10:32:07;2.23;;;2.03;;
56517;SDS011;42419;48.760;2.322;2023-05-10T10:34:38;3.37;;;2.03;;
56517;SDS011;42419;48.760;2.322;2023-05-10T10:37:04;3.93;;;2.17;;
56517;SDS011;42419;48.760;2.322;2023-05-10T10:39:31;2.93;;;2.20;;
56517;SDS011;42419;48.760;2.322;2023-05-10T10:41:57;3.00;;;2.20;;
56517;SDS011;42419;48.760;2.322;2023-05-10T10:49:50;3.50;;;2.30;;
56517;SDS011;42419;48.760;2.322;2023-05-10T10:55:03;2.90;;;2.10;;
56517;SDS011;42419;48.760;2.322;2023-05-10T10:57:31;4.40;;;2.37;;
56517;SDS011;42419;48.760;2.322;2023-05-10T11:02:45;3.27;;;2.30;;
56517;SDS011;42419;48.760;2.322;2023-05-10T11:05:22;2.60;;;1.80;;
56517;SDS011;42419;48.760;2.322;2023-05-10T11:07:58;3.57;;;2.33;;
56517;SDS011;42419;48.760;2.322;2023-05-10T11:10:25;3.67;;;2.10;;
56517;SDS011;42419;48.760;2.322;2023-05-10T11:13:01;2.97;;;2.37;;
56517;SDS011;42419;48.760;2.322;2023-05-10T11:17:57;3.20;;;2.23;;
56517;SDS011;42419;48.760;2.322;2023-05-10T11:20:22;2.50;;;1.93;;
56517;SDS011;42419;48.760;2.322;2023-05-10T11:22:51;3.83;;;2.20;;
56517;SDS011;42419;48.760;2.322;2023-05-10T11:25:18;3.20;;;2.50;;
56517;SDS011;42419;48.760;2.322;2023-05-10T11:27:45;3.60;;;2.80;;
56517;SDS011;42419;48.760;2.322;2023-05-10T11:30:12;3.27;;;2.27;;
56517;SDS011;42419;48.760;2.322;2023-05-10T11:32:40;4.10;;;2.30;;
56517;SDS011;42419;48.760;2.322;2023-05-10T11:35:09;3.40;;;2.10;;
56517;SDS011;42419;48.760;2.322;2023-05-10T11:37:36;6.03;;;2.73;;
56517;SDS011;42419;48.760;2.322;2023-05-10T11:40:06;3.90;;;2.10;;
56517;SDS011;42419;48.760;2.322;2023-05-10T11:42:32;3.70;;;2.60;;
56517;SDS011;42419;48.760;2.322;2023-05-10T11:44:59;3.13;;;2.73;;
56517;SDS011;42419;48.760;2.322;2023-05-10T11:47:25;4.47;;;2.90;;
56517;SDS011;42419;48.760;2.322;2023-05-10T11:49:51;5.60;;;3.20;;
56517;SDS011;42419;48.760;2.322;2023-05-10T11:52:16;5.37;;;2.83;;
56517;SDS011;42419;48.760;2.322;2023-05-10T11:54:53;6.10;;;2.80;;
56517;SDS011;42419;48.760;2.322;2023-05-10T11:57:20;4.30;;;2.90;;
56517;SDS011;42419;48.760;2.322;2023-05-10T11:59:53;4.57;;;2.40;;
56517;SDS011;42419;48.760;2.322;2023-05-10T12:02:19;5.20;;;2.80;;
56517;SDS011;42419;48.760;2.322;2023-05-10T12:04:45;9.10;;;3.40;;
56517;SDS011;42419;48.760;2.322;2023-05-10T12:07:10;4.03;;;2.93;;
56517;SDS011;42419;48.760;2.322;2023-05-10T12:09:35;3.70;;;2.67;;
56517;SDS011;42419;48.760;2.322;2023-05-10T12:12:01;5.70;;;3.17;;
56517;SDS011;42419;48.760;2.322;2023-05-10T12:14:27;5.37;;;2.80;;
56517;SDS011;42419;48.760;2.322;2023-05-10T12:16:53;5.73;;;3.10;;
56517;SDS011;42419;48.760;2.322;2023-05-10T12:19:19;4.30;;;3.07;;
56517;SDS011;42419;48.760;2.322;2023-05-10T12:21:47;5.87;;;2.47;;
56517;SDS011;42419;48.760;2.322;2023-05-10T12:24:13;3.57;;;2.20;;
56517;SDS011;42419;48.760;2.322;2023-05-10T12:26:39;3.40;;;2.47;;
56517;SDS011;42419;48.760;2.322;2023-05-10T12:29:17;4.80;;;2.73;;
56517;SDS011;42419;48.760;2.322;2023-05-10T12:31:53;4.77;;;2.80;;
56517;SDS011;42419;48.760;2.322;2023-05-10T12:34:31;6.00;;;2.50;;
56517;SDS011;42419;48.760;2.322;2023-05-10T12:36:58;3.43;;;2.70;;
56517;SDS011;42419;48.760;2.322;2023-05-10T12:39:24;3.80;;;2.57;;
56517;SDS011;42419;48.760;2.322;2023-05-10T12:41:50;4.70;;;2.80;;
56517;SDS011;42419;48.760;2.322;2023-05-10T12:44:15;4.87;;;2.80;;
56517;SDS011;42419;48.760;2.322;2023-05-10T12:46:41;4.53;;;2.90;;
56517;SDS011;42419;48.760;2.322;2023-05-10T12:49:06;3.73;;;2.27;;
56517;SDS011;42419;48.760;2.322;2023-05-10T12:51:31;2.50;;;2.30;;
56517;SDS011;42419;48.760;2.322;2023-05-10T12:53:57;3.77;;;2.63;;
56517;SDS011;42419;48.760;2.322;2023-05-10T12:56:22;4.57;;;2.47;;
56517;SDS011;42419;48.760;2.322;2023-05-10T12:58:47;2.83;;;2.00;;
56517;SDS011;42419;48.760;2.322;2023-05-10T13:01:13;4.67;;;3.30;;
56517;SDS011;42419;48.760;2.322;2023-05-10T13:03:39;2.93;;;2.30;;
56517;SDS011;42419;48.760;2.322;2023-05-10T13:06:05;3.90;;;2.70;;
56517;SDS011;42419;48.760;2.322;2023-05-10T13:08:31;4.33;;;2.70;;
56517;SDS011;42419;48.760;2.322;2023-05-10T13:11:02;4.17;;;2.93;;
56517;SDS011;42419;48.760;2.322;2023-05-10T13:13:28;3.03;;;2.63;;
56517;SDS011;42419;48.760;2.322;2023-05-10T13:15:53;4.70;;;2.80;;
56517;SDS011;42419;48.760;2.322;2023-05-10T13:18:19;5.70;;;3.27;;
56517;SDS011;42419;48.760;2.322;2023-05-10T13:20:44;5.03;;;3.23;;
56517;SDS011;42419;48.760;2.322;2023-05-10T13:23:09;4.53;;;3.10;;
56517;SDS011;42419;48.760;2.322;2023-05-10T13:25:35;3.60;;;2.87;;
56517;SDS011;42419;48.760;2.322;2023-05-10T13:28:01;5.03;;;3.63;;
56517;SDS011;42419;48.760;2.322;2023-05-10T13:30:26;3.27;;;2.40;;
56517;SDS011;42419;48.760;2.322;2023-05-10T13:32:52;3.67;;;2.50;;
56517;SDS011;42419;48.760;2.322;2023-05-10T13:35:17;3.77;;;2.83;;
56517;SDS011;42419;48.760;2.322;2023-05-10T13:37:42;2.63;;;2.33;;
56517;SDS011;42419;48.760;2.322;2023-05-10T13:40:08;4.40;;;2.97;;
56517;SDS011;42419;48.760;2.322;2023-05-10T13:42:33;5.57;;;3.23;;
56517;SDS011;42419;48.760;2.322;2023-05-10T13:44:59;4.80;;;2.40;;
56517;SDS011;42419;48.760;2.322;2023-05-10T13:47:26;4.80;;;2.70;;
56517;SDS011;42419;48.760;2.322;2023-05-10T13:49:51;4.87;;;2.70;;
56517;SDS011;42419;48.760;2.322;2023-05-10T13:52:17;5.03;;;2.90;;
56517;SDS011;42419;48.760;2.322;2023-05-10T13:54:43;3.60;;;2.73;;
56517;SDS011;42419;48.760;2.322;2023-05-10T13:57:08;3.70;;;2.50;;
56517;SDS011;42419;48.760;2.322;2023-05-10T13:59:33;5.50;;;3.07;;
56517;SDS011;42419;48.760;2.322;2023-05-10T14:01:59;3.57;;;2.30;;
56517;SDS011;42419;48.760;2.322;2023-05-10T14:04:27;4.20;;;2.73;;
56517;SDS011;42419;48.760;2.322;2023-05-10T14:06:52;3.60;;;2.63;;
56517;SDS011;42419;48.760;2.322;2023-05-10T14:09:18;3.87;;;3.00;;
56517;SDS011;42419;48.760;2.322;2023-05-10T14:11:44;4.83;;;2.87;;
56517;SDS011;42419;48.760;2.322;2023-05-10T14:14:10;4.37;;;2.80;;
56517;SDS011;42419;48.760;2.322;2023-05-10T14:16:36;3.97;;;3.00;;
56517;SDS011;42419;48.760;2.322;2023-05-10T14:19:01;4.67;;;3.27;;
56517;SDS011;42419;48.760;2.322;2023-05-10T14:21:27;3.60;;;2.47;;
56517;SDS011;42419;48.760;2.322;2023-05-10T14:23:54;4.13;;;2.93;;
56517;SDS011;42419;48.760;2.322;2023-05-10T14:26:20;3.40;;;2.73;;
56517;SDS011;42419;48.760;2.322;2023-05-10T14:28:46;3.60;;;3.20;;
56517;SDS011;42419;48.760;2.322;2023-05-10T14:31:11;3.93;;;3.10;;
56517;SDS011;42419;48.760;2.322;2023-05-10T14:33:37;3.97;;;3.03;;
56517;SDS011;42419;48.760;2.322;2023-05-10T14:36:02;4.40;;;2.80;;
56517;SDS011;42419;48.760;2.322;2023-05-10T14:38:28;4.37;;;3.23;;
56517;SDS011;42419;48.760;2.322;2023-05-10T14:40:54;3.80;;;2.40;;
56517;SDS011;42419;48.760;2.322;2023-05-10T14:43:20;4.23;;;2.97;;
56517;SDS011;42419;48.760;2.322;2023-05-10T14:45:45;4.83;;;3.10;;
56517;SDS011;42419;48.760;2.322;2023-05-10T14:48:10;3.63;;;2.63;;
56517;SDS011;42419;48.760;2.322;2023-05-10T14:50:40;4.10;;;2.70;;
56517;SDS011;42419;48.760;2.322;2023-05-10T14:53:05;4.80;;;2.80;;
56517;SDS011;42419;48.760;2.322;2023-05-10T14:55:31;3.83;;;2.60;;
56517;SDS011;42419;48.760;2.322;2023-05-10T14:57:57;4.40;;;3.07;;
56517;SDS011;42419;48.760;2.322;2023-05-10T15:00:23;3.50;;;2.97;;
56517;SDS011;42419;48.760;2.322;2023-05-10T15:02:48;5.57;;;3.50;;
56517;SDS011;42419;48.760;2.322;2023-05-10T15:05:14;3.13;;;2.33;;
56517;SDS011;42419;48.760;2.322;2023-05-10T15:07:39;2.70;;;2.50;;
56517;SDS011;42419;48.760;2.322;2023-05-10T15:10:05;4.40;;;2.83;;
56517;SDS011;42419;48.760;2.322;2023-05-10T15:12:31;7.50;;;3.30;;
56517;SDS011;42419;48.760;2.322;2023-05-10T15:14:56;7.00;;;3.20;;
56517;SDS011;42419;48.760;2.322;2023-05-10T15:17:21;4.33;;;3.00;;